ASL78T LYBE-LDDU
Flight info
| Callsign | ASL78T |
|---|---|
| Flight time | 0h 38m |
| Altitude | 24000 |
| Route | VAL DCT MOKUN |
| Aircraft | A320/M-SDE3FGHIRWY/LB1 |
Departure
| Time | 2026-04-28 20:19 |
|---|---|
| Airport | Belgrade Nikola Tesla Airport (LYBE) |
Arrival
| Time | 2026-04-28 20:57 |
|---|---|
| Airport | Dubrovnik Ruđer Bošković Airport (LDDU) |
| Time | Latitude | Longitude | Altitude | Speed | Heading |
|---|---|---|---|---|---|
| 2026-04-28 20:00 | 44.82055 | 20.29377 | 307 ft | 0 kts | 302° |
| 2026-04-28 20:12 | 44.82051 | 20.29385 | 307 ft | 3 kts | 302° |
| 2026-04-28 20:12 | 44.82042 | 20.29406 | 307 ft | 3 kts | 302° |
| 2026-04-28 20:12 | 44.82033 | 20.29427 | 305 ft | 2 kts | 309° |
| 2026-04-28 20:12 | 44.82025 | 20.29438 | 304 ft | 2 kts | 356° |
| 2026-04-28 20:13 | 44.82016 | 20.29438 | 305 ft | 0 kts | 27° |
| 2026-04-28 20:15 | 44.82023 | 20.29443 | 307 ft | 3 kts | 27° |
| 2026-04-28 20:15 | 44.82044 | 20.29464 | 308 ft | 5 kts | 35° |
| 2026-04-28 20:16 | 44.82078 | 20.29503 | 309 ft | 8 kts | 39° |
| 2026-04-28 20:16 | 44.82131 | 20.29523 | 308 ft | 9 kts | 341° |
| 2026-04-28 20:16 | 44.82173 | 20.29453 | 310 ft | 11 kts | 303° |
| 2026-04-28 20:16 | 44.82220 | 20.29353 | 309 ft | 14 kts | 303° |
| 2026-04-28 20:17 | 44.82277 | 20.29228 | 308 ft | 17 kts | 303° |
| 2026-04-28 20:17 | 44.82343 | 20.29079 | 307 ft | 20 kts | 300° |
| 2026-04-28 20:17 | 44.82420 | 20.28902 | 307 ft | 22 kts | 311° |
| 2026-04-28 20:17 | 44.82557 | 20.28903 | 309 ft | 22 kts | 38° |
| 2026-04-28 20:18 | 44.82624 | 20.29105 | 306 ft | 24 kts | 81° |
| 2026-04-28 20:18 | 44.82583 | 20.29248 | 306 ft | 25 kts | 122° |
| 2026-04-28 20:18 | 44.82319 | 20.29849 | 308 ft | 101 kts | 121° |
| 2026-04-28 20:18 | 44.81838 | 20.30972 | 314 ft | 162 kts | 124° |
| 2026-04-28 20:19 | 44.81190 | 20.32345 | 859 ft | 175 kts | 122° |
| 2026-04-28 20:19 | 44.80454 | 20.33821 | 1439 ft | 192 kts | 133° |
| 2026-04-28 20:19 | 44.79319 | 20.34756 | 2281 ft | 192 kts | 166° |
| 2026-04-28 20:19 | 44.77964 | 20.34905 | 2815 ft | 206 kts | 184° |
| 2026-04-28 20:20 | 44.76553 | 20.34145 | 3181 ft | 232 kts | 212° |
| 2026-04-28 20:20 | 44.75105 | 20.32883 | 3597 ft | 257 kts | 211° |
| 2026-04-28 20:20 | 44.73517 | 20.31548 | 4255 ft | 272 kts | 212° |
| 2026-04-28 20:20 | 44.71871 | 20.30181 | 5160 ft | 276 kts | 212° |
| 2026-04-28 20:21 | 44.70243 | 20.28831 | 6207 ft | 275 kts | 213° |
| 2026-04-28 20:21 | 44.68593 | 20.27455 | 7184 ft | 276 kts | 213° |
| 2026-04-28 20:21 | 44.66935 | 20.26072 | 8130 ft | 278 kts | 214° |
| 2026-04-28 20:21 | 44.65263 | 20.24677 | 9074 ft | 281 kts | 214° |
| 2026-04-28 20:22 | 44.63579 | 20.23268 | 10019 ft | 283 kts | 215° |
| 2026-04-28 20:22 | 44.61832 | 20.21795 | 10443 ft | 305 kts | 215° |
| 2026-04-28 20:22 | 44.59943 | 20.20201 | 10686 ft | 328 kts | 214° |
| 2026-04-28 20:22 | 44.57938 | 20.18515 | 11158 ft | 341 kts | 214° |
| 2026-04-28 20:23 | 44.55881 | 20.16800 | 11877 ft | 346 kts | 214° |
| 2026-04-28 20:23 | 44.53794 | 20.15069 | 12608 ft | 350 kts | 214° |
| 2026-04-28 20:23 | 44.51686 | 20.13320 | 13338 ft | 354 kts | 213° |
| 2026-04-28 20:23 | 44.49553 | 20.11551 | 14049 ft | 358 kts | 214° |
| 2026-04-28 20:24 | 44.47396 | 20.09763 | 14680 ft | 362 kts | 214° |
| 2026-04-28 20:24 | 44.45220 | 20.07956 | 15338 ft | 366 kts | 214° |
| 2026-04-28 20:24 | 44.43017 | 20.06124 | 15976 ft | 370 kts | 214° |
| 2026-04-28 20:24 | 44.40795 | 20.04274 | 16627 ft | 374 kts | 214° |
| 2026-04-28 20:25 | 44.38548 | 20.02405 | 17263 ft | 378 kts | 215° |
| 2026-04-28 20:25 | 44.36277 | 20.00520 | 17910 ft | 382 kts | 214° |
| 2026-04-28 20:25 | 44.33979 | 19.98617 | 18523 ft | 386 kts | 215° |
| 2026-04-28 20:25 | 44.31656 | 19.96699 | 19110 ft | 390 kts | 215° |
| 2026-04-28 20:26 | 44.29313 | 19.94762 | 19721 ft | 393 kts | 215° |
| 2026-04-28 20:26 | 44.26953 | 19.92812 | 20338 ft | 396 kts | 215° |
| 2026-04-28 20:26 | 44.24569 | 19.90847 | 20934 ft | 399 kts | 215° |
| 2026-04-28 20:26 | 44.22167 | 19.88870 | 21501 ft | 403 kts | 216° |
| 2026-04-28 20:27 | 44.19748 | 19.86881 | 22039 ft | 406 kts | 215° |
| 2026-04-28 20:27 | 44.17307 | 19.84878 | 22567 ft | 409 kts | 215° |
| 2026-04-28 20:27 | 44.14845 | 19.82861 | 23091 ft | 412 kts | 216° |
| 2026-04-28 20:27 | 44.12365 | 19.80832 | 23585 ft | 414 kts | 216° |
| 2026-04-28 20:28 | 44.09873 | 19.78793 | 23950 ft | 417 kts | 216° |
| 2026-04-28 20:28 | 44.07368 | 19.76740 | 24054 ft | 420 kts | 216° |
| 2026-04-28 20:28 | 44.04849 | 19.74641 | 24083 ft | 427 kts | 217° |
| 2026-04-28 20:28 | 44.02319 | 19.72415 | 24065 ft | 433 kts | 217° |
| 2026-04-28 20:29 | 43.99767 | 19.70156 | 24072 ft | 436 kts | 217° |
| 2026-04-28 20:29 | 43.97185 | 19.67931 | 24072 ft | 437 kts | 216° |
| 2026-04-28 20:29 | 43.94580 | 19.65756 | 24071 ft | 437 kts | 215° |
| 2026-04-28 20:29 | 43.91953 | 19.63620 | 24071 ft | 438 kts | 215° |
| 2026-04-28 20:30 | 43.89340 | 19.61530 | 24063 ft | 439 kts | 214° |
| 2026-04-28 20:30 | 43.86660 | 19.59397 | 24054 ft | 439 kts | 214° |
| 2026-04-28 20:30 | 43.84017 | 19.57286 | 24064 ft | 439 kts | 214° |
| 2026-04-28 20:30 | 43.81412 | 19.55190 | 24063 ft | 439 kts | 214° |
| 2026-04-28 20:31 | 43.78774 | 19.53064 | 24062 ft | 439 kts | 214° |
| 2026-04-28 20:31 | 43.76138 | 19.50942 | 24058 ft | 439 kts | 214° |
| 2026-04-28 20:31 | 43.73501 | 19.48818 | 24062 ft | 439 kts | 214° |
| 2026-04-28 20:31 | 43.70862 | 19.46693 | 24051 ft | 438 kts | 214° |
| 2026-04-28 20:32 | 43.68227 | 19.44577 | 24039 ft | 439 kts | 214° |
| 2026-04-28 20:32 | 43.65586 | 19.42459 | 24039 ft | 439 kts | 214° |
| 2026-04-28 20:32 | 43.62949 | 19.40348 | 24044 ft | 439 kts | 214° |
| 2026-04-28 20:32 | 43.60308 | 19.38233 | 24042 ft | 439 kts | 214° |
| 2026-04-28 20:33 | 43.57666 | 19.36119 | 24042 ft | 439 kts | 214° |
| 2026-04-28 20:33 | 43.55024 | 19.34008 | 24045 ft | 439 kts | 214° |
| 2026-04-28 20:33 | 43.52376 | 19.31896 | 24028 ft | 439 kts | 214° |
| 2026-04-28 20:33 | 43.49728 | 19.29787 | 24027 ft | 440 kts | 214° |
| 2026-04-28 20:34 | 43.47078 | 19.27673 | 24025 ft | 440 kts | 214° |
| 2026-04-28 20:34 | 43.44429 | 19.25565 | 24031 ft | 440 kts | 214° |
| 2026-04-28 20:34 | 43.42676 | 19.24170 | 24029 ft | 440 kts | 214° |
| 2026-04-28 20:34 | 43.40022 | 19.22063 | 24031 ft | 440 kts | 214° |
| 2026-04-28 20:35 | 43.37378 | 19.19942 | 24037 ft | 439 kts | 216° |
| 2026-04-28 20:35 | 43.35047 | 19.17300 | 24026 ft | 432 kts | 231° |
| 2026-04-28 20:35 | 43.33224 | 19.14060 | 24028 ft | 429 kts | 237° |
| 2026-04-28 20:35 | 43.31480 | 19.10728 | 24032 ft | 429 kts | 238° |
| 2026-04-28 20:36 | 43.29747 | 19.07387 | 24037 ft | 429 kts | 238° |
| 2026-04-28 20:36 | 43.28020 | 19.04043 | 24038 ft | 429 kts | 238° |
| 2026-04-28 20:36 | 43.26298 | 19.00701 | 24041 ft | 429 kts | 238° |
| 2026-04-28 20:36 | 43.24572 | 18.97359 | 24037 ft | 429 kts | 238° |
| 2026-04-28 20:37 | 43.22840 | 18.94017 | 24041 ft | 429 kts | 238° |
| 2026-04-28 20:37 | 43.21107 | 18.90687 | 24042 ft | 429 kts | 237° |
| 2026-04-28 20:37 | 43.19371 | 18.87365 | 24044 ft | 429 kts | 237° |
| 2026-04-28 20:37 | 43.17627 | 18.84032 | 24052 ft | 430 kts | 237° |
| 2026-04-28 20:38 | 43.15883 | 18.80701 | 24051 ft | 430 kts | 237° |
| 2026-04-28 20:38 | 43.14140 | 18.77379 | 24042 ft | 430 kts | 237° |
| 2026-04-28 20:38 | 43.12393 | 18.74055 | 24048 ft | 429 kts | 237° |
| 2026-04-28 20:38 | 43.10652 | 18.70739 | 24061 ft | 429 kts | 237° |
| 2026-04-28 20:39 | 43.08910 | 18.67420 | 24063 ft | 429 kts | 237° |
| 2026-04-28 20:39 | 43.07165 | 18.64102 | 24051 ft | 429 kts | 237° |
| 2026-04-28 20:39 | 43.05420 | 18.60789 | 24049 ft | 430 kts | 237° |
| 2026-04-28 20:39 | 43.03670 | 18.57474 | 24050 ft | 430 kts | 237° |
| 2026-04-28 20:40 | 43.01927 | 18.54171 | 24012 ft | 424 kts | 237° |
| 2026-04-28 20:40 | 43.00216 | 18.50938 | 23510 ft | 416 kts | 237° |
| 2026-04-28 20:40 | 42.98534 | 18.47767 | 22846 ft | 412 kts | 237° |
| 2026-04-28 20:40 | 42.96857 | 18.44609 | 22195 ft | 408 kts | 237° |
| 2026-04-28 20:41 | 42.95200 | 18.41488 | 21569 ft | 404 kts | 237° |
| 2026-04-28 20:41 | 42.93558 | 18.38396 | 20981 ft | 401 kts | 237° |
| 2026-04-28 20:41 | 42.91930 | 18.35329 | 20407 ft | 398 kts | 236° |
| 2026-04-28 20:41 | 42.90316 | 18.32281 | 19854 ft | 395 kts | 236° |
| 2026-04-28 20:42 | 42.88712 | 18.29255 | 19325 ft | 393 kts | 236° |
| 2026-04-28 20:42 | 42.87108 | 18.26241 | 18821 ft | 391 kts | 236° |
| 2026-04-28 20:42 | 42.85517 | 18.23257 | 18307 ft | 388 kts | 236° |
| 2026-04-28 20:42 | 42.83953 | 18.20333 | 17750 ft | 385 kts | 236° |
| 2026-04-28 20:43 | 42.82389 | 18.17412 | 17193 ft | 381 kts | 236° |
| 2026-04-28 20:43 | 42.80830 | 18.14501 | 16628 ft | 378 kts | 236° |
| 2026-04-28 20:43 | 42.79284 | 18.11616 | 16084 ft | 375 kts | 236° |
| 2026-04-28 20:43 | 42.77754 | 18.08767 | 15529 ft | 371 kts | 236° |
| 2026-04-28 20:44 | 42.76240 | 18.05943 | 14934 ft | 369 kts | 235° |
| 2026-04-28 20:44 | 42.74734 | 18.03132 | 14371 ft | 366 kts | 235° |
| 2026-04-28 20:44 | 42.73240 | 18.00341 | 13817 ft | 363 kts | 235° |
| 2026-04-28 20:44 | 42.71757 | 17.97583 | 13211 ft | 360 kts | 234° |
| 2026-04-28 20:45 | 42.70281 | 17.94852 | 12723 ft | 354 kts | 234° |
| 2026-04-28 20:45 | 42.68869 | 17.92246 | 12556 ft | 330 kts | 234° |
| 2026-04-28 20:45 | 42.67542 | 17.89791 | 12025 ft | 317 kts | 235° |
| 2026-04-28 20:45 | 42.66260 | 17.87411 | 11451 ft | 308 kts | 234° |
| 2026-04-28 20:46 | 42.65017 | 17.85095 | 10883 ft | 300 kts | 236° |
| 2026-04-28 20:46 | 42.64029 | 17.82650 | 10319 ft | 293 kts | 249° |
| 2026-04-28 20:46 | 42.63479 | 17.80016 | 9695 ft | 289 kts | 261° |
| 2026-04-28 20:46 | 42.63370 | 17.77312 | 9040 ft | 286 kts | 273° |
| 2026-04-28 20:47 | 42.63687 | 17.74669 | 8398 ft | 283 kts | 285° |
| 2026-04-28 20:47 | 42.64409 | 17.72193 | 7768 ft | 282 kts | 296° |
| 2026-04-28 20:47 | 42.65435 | 17.69950 | 7181 ft | 279 kts | 310° |
| 2026-04-28 20:47 | 42.66946 | 17.68305 | 6833 ft | 280 kts | 331° |
| 2026-04-28 20:48 | 42.68796 | 17.67520 | 6509 ft | 281 kts | 353° |
| 2026-04-28 20:48 | 42.70733 | 17.67738 | 6166 ft | 281 kts | 16° |
| 2026-04-28 20:48 | 42.72512 | 17.68836 | 5872 ft | 280 kts | 27° |
| 2026-04-28 20:48 | 42.74208 | 17.70150 | 5503 ft | 280 kts | 38° |
| 2026-04-28 20:49 | 42.75434 | 17.72098 | 5359 ft | 263 kts | 64° |
| 2026-04-28 20:49 | 42.75943 | 17.74356 | 5226 ft | 241 kts | 87° |
| 2026-04-28 20:49 | 42.75795 | 17.76562 | 5050 ft | 231 kts | 109° |
| 2026-04-28 20:49 | 42.75134 | 17.78511 | 5005 ft | 222 kts | 120° |
| 2026-04-28 20:50 | 42.74404 | 17.80354 | 5010 ft | 221 kts | 120° |
| 2026-04-28 20:50 | 42.73690 | 17.82185 | 5007 ft | 214 kts | 120° |
| 2026-04-28 20:50 | 42.73018 | 17.83923 | 5008 ft | 203 kts | 120° |
| 2026-04-28 20:50 | 42.72366 | 17.85602 | 5010 ft | 199 kts | 120° |
| 2026-04-28 20:51 | 42.71711 | 17.87264 | 5012 ft | 199 kts | 120° |
| 2026-04-28 20:51 | 42.71059 | 17.88926 | 5010 ft | 199 kts | 121° |
| 2026-04-28 20:51 | 42.70408 | 17.90585 | 5010 ft | 199 kts | 120° |
| 2026-04-28 20:51 | 42.69978 | 17.91685 | 5012 ft | 199 kts | 120° |
| 2026-04-28 20:52 | 42.69108 | 17.93908 | 5012 ft | 199 kts | 120° |
| 2026-04-28 20:52 | 42.68463 | 17.95550 | 5011 ft | 199 kts | 121° |
| 2026-04-28 20:52 | 42.67804 | 17.97234 | 4913 ft | 199 kts | 120° |
| 2026-04-28 20:52 | 42.67156 | 17.98887 | 4693 ft | 198 kts | 121° |
| 2026-04-28 20:53 | 42.65877 | 18.02139 | 4181 ft | 195 kts | 120° |
| 2026-04-28 20:53 | 42.65238 | 18.03764 | 3924 ft | 194 kts | 121° |
| 2026-04-28 20:53 | 42.64605 | 18.05379 | 3671 ft | 193 kts | 121° |
| 2026-04-28 20:54 | 42.63972 | 18.06987 | 3419 ft | 192 kts | 121° |
| 2026-04-28 20:54 | 42.63342 | 18.08583 | 3173 ft | 191 kts | 121° |
| 2026-04-28 20:54 | 42.62716 | 18.10172 | 2919 ft | 190 kts | 120° |
| 2026-04-28 20:54 | 42.62093 | 18.11757 | 2685 ft | 188 kts | 120° |
| 2026-04-28 20:55 | 42.61486 | 18.13296 | 2425 ft | 181 kts | 121° |
| 2026-04-28 20:55 | 42.60913 | 18.14749 | 2177 ft | 167 kts | 120° |
| 2026-04-28 20:55 | 42.60385 | 18.16089 | 1965 ft | 156 kts | 120° |
| 2026-04-28 20:55 | 42.59883 | 18.17359 | 1766 ft | 151 kts | 121° |
| 2026-04-28 20:56 | 42.59386 | 18.18615 | 1559 ft | 151 kts | 122° |
| 2026-04-28 20:56 | 42.58893 | 18.19860 | 1388 ft | 150 kts | 121° |
| 2026-04-28 20:56 | 42.58405 | 18.21094 | 1181 ft | 147 kts | 120° |
| 2026-04-28 20:56 | 42.57915 | 18.22312 | 1012 ft | 147 kts | 118° |
| 2026-04-28 20:57 | 42.57440 | 18.23535 | 746 ft | 146 kts | 121° |
| 2026-04-28 20:57 | 42.56966 | 18.24740 | 579 ft | 145 kts | 121° |
| 2026-04-28 20:57 | 42.56520 | 18.25844 | 536 ft | 118 kts | 119° |
| 2026-04-28 20:57 | 42.56277 | 18.26464 | 533 ft | 31 kts | 115° |
| 2026-04-28 20:58 | 42.56256 | 18.26525 | 533 ft | 9 kts | 115° |
| 2026-04-28 20:58 | 42.56204 | 18.26623 | 534 ft | 13 kts | 148° |
| 2026-04-28 20:58 | 42.56150 | 18.26607 | 534 ft | 5 kts | 229° |
| 2026-04-28 20:58 | 42.56129 | 18.26553 | 534 ft | 8 kts | 240° |
| 2026-04-28 20:59 | 42.56104 | 18.26474 | 534 ft | 10 kts | 261° |
| 2026-04-28 20:59 | 42.56130 | 18.26377 | 534 ft | 12 kts | 295° |
| 2026-04-28 20:59 | 42.56156 | 18.26285 | 534 ft | 7 kts | 262° |
| 2026-04-28 20:59 | 42.56118 | 18.26255 | 534 ft | 3 kts | 206° |
| 2026-04-28 21:00 | 42.56110 | 18.26249 | 534 ft | 0 kts | 208° |